Time;durP1;ratioP1;P1;durP2;ratioP2;P2;SDS_P1;SDS_P2;PMS_P1;PMS_P2;Temp;Humidity;BMP_temperature;BMP_pressure;BME280_temperature;BME280_humidity;BME280_pressure;Samples;Min_cycle;Max_cycle;Signal;HPM_P1;HPM_P2
2023/10/04 00:00:16;;;;;;;2.80;1.25;;;;;;;;;;5034632;28;20033;-77
2023/10/04 00:03:02;;;;;;;3.13;1.42;;;;;;;;;;5035020;28;20030;-77
2023/10/04 00:05:30;;;;;;;1.60;1.33;;;;;;;;;;5034693;28;20039;-79
2023/10/04 00:07:56;;;;;;;1.77;1.20;;;;;;;;;;5037545;28;20029;-78
2023/10/04 00:10:25;;;;;;;1.85;1.10;;;;;;;;;;5050732;28;20045;-77
2023/10/04 00:12:52;;;;;;;2.42;1.35;;;;;;;;;;5054293;28;20045;-77
2023/10/04 00:15:25;;;;;;;2.70;1.65;;;;;;;;;;5052701;28;20506;-77
2023/10/04 00:17:52;;;;;;;2.25;1.23;;;;;;;;;;5054420;28;20029;-76
2023/10/04 00:20:19;;;;;;;1.65;1.42;;;;;;;;;;5042729;28;20419;-77
2023/10/04 00:22:46;;;;;;;1.40;1.10;;;;;;;;;;5036558;28;20022;-78
2023/10/04 00:25:23;;;;;;;2.05;1.25;;;;;;;;;;5036016;28;20109;-78
2023/10/04 00:27:52;;;;;;;2.60;1.40;;;;;;;;;;5036223;28;20097;-77
2023/10/04 00:30:18;;;;;;;2.92;1.58;;;;;;;;;;5044929;28;20067;-77
2023/10/04 00:32:47;;;;;;;2.28;1.40;;;;;;;;;;5055104;28;20036;-78
2023/10/04 00:35:17;;;;;;;1.88;1.50;;;;;;;;;;5057472;28;20108;-77
2023/10/04 00:37:43;;;;;;;1.92;1.17;;;;;;;;;;5054492;28;20021;-78
2023/10/04 00:40:15;;;;;;;1.50;1.20;;;;;;;;;;5052596;28;20028;-77
2023/10/04 00:42:41;;;;;;;2.00;1.42;;;;;;;;;;5043450;28;20459;-77
2023/10/04 00:45:12;;;;;;;2.70;1.10;;;;;;;;;;5034445;28;20036;-77
2023/10/04 00:47:41;;;;;;;1.63;1.50;;;;;;;;;;5034960;28;20017;-77
2023/10/04 00:50:14;;;;;;;1.75;1.20;;;;;;;;;;5037374;28;20041;-77
2023/10/04 00:52:43;;;;;;;2.53;1.13;;;;;;;;;;5052626;28;20021;-76
2023/10/04 00:55:10;;;;;;;2.25;1.20;;;;;;;;;;5054037;28;20090;-77
2023/10/04 00:57:36;;;;;;;1.90;1.42;;;;;;;;;;5054379;28;20031;-77
2023/10/04 01:00:08;;;;;;;2.53;1.35;;;;;;;;;;5053945;28;20025;-77
2023/10/04 01:02:37;;;;;;;1.70;1.25;;;;;;;;;;5046219;28;20036;-77
2023/10/04 01:05:04;;;;;;;1.98;1.30;;;;;;;;;;5032462;28;20026;-77
2023/10/04 01:07:31;;;;;;;1.83;1.10;;;;;;;;;;5033745;28;20085;-78
2023/10/04 01:09:58;;;;;;;1.40;0.90;;;;;;;;;;5035833;28;20029;-78
2023/10/04 01:12:24;;;;;;;1.60;1.10;;;;;;;;;;5048832;28;20079;-78
2023/10/04 01:14:54;;;;;;;2.38;1.20;;;;;;;;;;5056260;28;20047;-77
2023/10/04 01:17:21;;;;;;;1.08;0.70;;;;;;;;;;5054571;28;20040;-76
2023/10/04 01:19:47;;;;;;;0.98;0.88;;;;;;;;;;5052059;28;20024;-76
2023/10/04 01:22:13;;;;;;;1.70;0.93;;;;;;;;;;5054139;28;20025;-76
2023/10/04 01:24:41;;;;;;;1.63;0.70;;;;;;;;;;5055034;28;20475;-76
2023/10/04 01:27:10;;;;;;;1.17;0.73;;;;;;;;;;5055757;28;20025;-77
2023/10/04 01:29:38;;;;;;;0.68;0.68;;;;;;;;;;5056317;28;20499;-78
2023/10/04 01:32:08;;;;;;;0.70;0.70;;;;;;;;;;5055515;28;20029;-78
2023/10/04 01:34:36;;;;;;;0.60;0.60;;;;;;;;;;5054298;28;20550;-79
2023/10/04 01:37:03;;;;;;;0.60;0.60;;;;;;;;;;5054284;28;20051;-78
2023/10/04 01:39:30;;;;;;;0.90;0.68;;;;;;;;;;5035961;28;20504;-78
2023/10/04 01:41:56;;;;;;;0.88;0.70;;;;;;;;;;5036899;28;20483;-78
2023/10/04 01:44:22;;;;;;;0.93;0.80;;;;;;;;;;5033817;28;20034;-77
2023/10/04 01:46:48;;;;;;;1.17;0.45;;;;;;;;;;5033291;28;20033;-77
2023/10/04 01:49:14;;;;;;;1.00;0.80;;;;;;;;;;5033088;28;20024;-77
2023/10/04 01:51:42;;;;;;;1.38;0.60;;;;;;;;;;5033395;28;20022;-78
2023/10/04 01:54:11;;;;;;;1.35;0.80;;;;;;;;;;5033837;28;20021;-78
2023/10/04 01:56:38;;;;;;;1.00;0.90;;;;;;;;;;5034105;28;20109;-78
2023/10/04 01:59:05;;;;;;;1.17;1.08;;;;;;;;;;5035346;28;20029;-78
2023/10/04 02:01:31;;;;;;;2.20;1.10;;;;;;;;;;5033902;28;20032;-77
2023/10/04 02:04:01;;;;;;;1.33;0.70;;;;;;;;;;5041482;28;20032;-77
2023/10/04 02:06:29;;;;;;;0.85;0.60;;;;;;;;;;5046670;28;20033;-78
2023/10/04 02:08:55;;;;;;;1.02;0.85;;;;;;;;;;5036846;28;20424;-78
2023/10/04 02:11:22;;;;;;;0.80;0.70;;;;;;;;;;5037097;28;20021;-78
2023/10/04 02:13:48;;;;;;;0.45;0.45;;;;;;;;;;5046295;28;20048;-77
2023/10/04 02:16:20;;;;;;;0.60;0.47;;;;;;;;;;5054045;28;20021;-78
2023/10/04 02:18:52;;;;;;;0.57;0.57;;;;;;;;;;5053061;28;20073;-77
2023/10/04 02:21:19;;;;;;;0.95;0.82;;;;;;;;;;5054886;28;20025;-77
2023/10/04 02:23:45;;;;;;;1.63;1.20;;;;;;;;;;5052080;28;20040;-77
2023/10/04 02:26:12;;;;;;;1.35;1.05;;;;;;;;;;5054981;28;20079;-77
2023/10/04 02:28:39;;;;;;;1.20;1.05;;;;;;;;;;5060662;28;20043;-77
2023/10/04 02:31:05;;;;;;;1.23;0.80;;;;;;;;;;5062535;28;20013;-77
2023/10/04 02:33:34;;;;;;;1.08;0.90;;;;;;;;;;5056573;28;20124;-78
2023/10/04 02:36:01;;;;;;;1.20;0.70;;;;;;;;;;5041445;28;20025;-77
2023/10/04 02:38:29;;;;;;;1.05;0.65;;;;;;;;;;5040926;28;20059;-77
2023/10/04 02:40:55;;;;;;;0.70;0.60;;;;;;;;;;5037009;28;20117;-77
2023/10/04 02:43:25;;;;;;;0.65;0.65;;;;;;;;;;5037507;28;20052;-77
2023/10/04 02:45:52;;;;;;;0.63;0.43;;;;;;;;;;5035187;28;20033;-77
2023/10/04 02:48:19;;;;;;;0.68;0.68;;;;;;;;;;5032946;28;20021;-77
2023/10/04 02:50:46;;;;;;;0.73;0.50;;;;;;;;;;5032117;28;20072;-77
2023/10/04 02:53:16;;;;;;;0.52;0.52;;;;;;;;;;5032568;28;20409;-78
2023/10/04 02:55:46;;;;;;;1.25;0.90;;;;;;;;;;5048182;28;20120;-78
2023/10/04 02:58:13;;;;;;;0.50;0.50;;;;;;;;;;5053062;28;20093;-78
2023/10/04 03:00:43;;;;;;;0.75;0.75;;;;;;;;;;5054389;28;20084;-78
2023/10/04 03:03:09;;;;;;;1.05;0.95;;;;;;;;;;5054626;28;20433;-78
2023/10/04 03:05:35;;;;;;;1.08;0.98;;;;;;;;;;5042388;28;20112;-78
2023/10/04 03:08:06;;;;;;;0.93;0.63;;;;;;;;;;5032775;28;20104;-77
2023/10/04 03:10:33;;;;;;;0.80;0.80;;;;;;;;;;5034710;28;20052;-78
2023/10/04 03:13:01;;;;;;;1.08;0.70;;;;;;;;;;5034516;28;20090;-78
2023/10/04 03:15:28;;;;;;;1.08;0.75;;;;;;;;;;5040695;28;20032;-78
2023/10/04 03:17:54;;;;;;;0.85;0.60;;;;;;;;;;5052456;28;20025;-76
2023/10/04 03:20:21;;;;;;;0.60;0.60;;;;;;;;;;5052669;28;20179;-77
2023/10/04 03:22:55;;;;;;;0.77;0.70;;;;;;;;;;5052300;28;20021;-78
2023/10/04 03:25:23;;;;;;;4.45;1.38;;;;;;;;;;5052937;28;20029;-78
2023/10/04 03:27:50;;;;;;;1.15;1.05;;;;;;;;;;5034062;28;20139;-78
2023/10/04 03:30:16;;;;;;;1.15;0.70;;;;;;;;;;5034818;28;20018;-78
2023/10/04 03:32:45;;;;;;;1.42;0.93;;;;;;;;;;5034826;28;20025;-78
2023/10/04 03:35:14;;;;;;;1.35;1.15;;;;;;;;;;5034178;28;20018;-78
2023/10/04 03:37:48;;;;;;;1.70;1.05;;;;;;;;;;5015157;28;20101;-78
2023/10/04 03:40:15;;;;;;;0.90;0.82;;;;;;;;;;5030475;28;20163;-77
2023/10/04 03:42:45;;;;;;;1.02;0.88;;;;;;;;;;5033524;28;20022;-78
2023/10/04 03:45:11;;;;;;;1.15;0.73;;;;;;;;;;5036543;28;20071;-78
2023/10/04 03:47:39;;;;;;;0.73;0.70;;;;;;;;;;5034461;28;20017;-78
2023/10/04 03:50:09;;;;;;;0.82;0.70;;;;;;;;;;5036310;28;20018;-78
2023/10/04 03:52:35;;;;;;;0.90;0.70;;;;;;;;;;5038870;28;20032;-79
2023/10/04 03:55:06;;;;;;;1.05;0.73;;;;;;;;;;5038846;28;20033;-78
2023/10/04 03:57:33;;;;;;;0.70;0.70;;;;;;;;;;5051471;28;20039;-79
2023/10/04 04:00:13;;;;;;;1.33;1.00;;;;;;;;;;5062098;28;20024;-79
2023/10/04 04:02:40;;;;;;;0.90;0.77;;;;;;;;;;5059508;28;20045;-78
2023/10/04 04:05:14;;;;;;;0.90;0.77;;;;;;;;;;5062499;28;20253;-79
2023/10/04 04:07:40;;;;;;;1.58;1.00;;;;;;;;;;5061773;28;20033;-78
2023/10/04 04:10:07;;;;;;;1.10;1.00;;;;;;;;;;5066775;28;20081;-77
2023/10/04 04:12:37;;;;;;;0.98;0.80;;;;;;;;;;5065736;28;20021;-77
2023/10/04 04:15:03;;;;;;;0.45;0.45;;;;;;;;;;5066341;28;20028;-76
2023/10/04 04:17:29;;;;;;;0.75;0.50;;;;;;;;;;5060058;28;20471;-78
2023/10/04 04:19:55;;;;;;;0.55;0.40;;;;;;;;;;5067431;28;20025;-77
2023/10/04 04:22:28;;;;;;;0.60;0.60;;;;;;;;;;5066521;28;20471;-76
2023/10/04 04:24:54;;;;;;;1.33;0.60;;;;;;;;;;5062247;28;20043;-77
2023/10/04 04:27:23;;;;;;;0.60;0.60;;;;;;;;;;5049669;28;20026;-77
2023/10/04 04:29:54;;;;;;;0.75;0.52;;;;;;;;;;5042322;28;20025;-77
2023/10/04 04:32:26;;;;;;;1.08;0.82;;;;;;;;;;5043137;28;20045;-77
2023/10/04 04:34:53;;;;;;;1.88;1.17;;;;;;;;;;5042647;28;20052;-77
2023/10/04 04:37:20;;;;;;;1.50;0.73;;;;;;;;;;5042771;28;20124;-76
2023/10/04 04:39:46;;;;;;;1.50;1.20;;;;;;;;;;5041834;28;20028;-78
2023/10/04 04:42:12;;;;;;;2.15;1.10;;;;;;;;;;5041342;28;20099;-77
2023/10/04 04:44:42;;;;;;;1.48;1.05;;;;;;;;;;5041790;28;20140;-78
2023/10/04 04:47:10;;;;;;;1.38;0.98;;;;;;;;;;5041509;28;20162;-78
2023/10/04 04:49:37;;;;;;;1.38;1.00;;;;;;;;;;5041537;28;20092;-78
2023/10/04 04:52:05;;;;;;;1.98;0.90;;;;;;;;;;5038363;28;20025;-77
2023/10/04 04:54:33;;;;;;;0.73;0.70;;;;;;;;;;5035464;28;20021;-77
2023/10/04 04:57:00;;;;;;;0.80;0.80;;;;;;;;;;5038182;28;20483;-77
2023/10/04 04:59:26;;;;;;;1.15;1.02;;;;;;;;;;5038004;28;20029;-77
2023/10/04 05:01:55;;;;;;;1.45;1.25;;;;;;;;;;5037401;28;20021;-78
2023/10/04 05:04:22;;;;;;;1.75;1.17;;;;;;;;;;5044726;28;20033;-77
2023/10/04 05:06:49;;;;;;;0.90;0.85;;;;;;;;;;5062663;28;20039;-78
2023/10/04 05:09:17;;;;;;;1.17;0.98;;;;;;;;;;5055038;28;20121;-78
2023/10/04 05:11:45;;;;;;;0.88;0.70;;;;;;;;;;5056293;28;20048;-78
2023/10/04 05:14:11;;;;;;;1.10;1.00;;;;;;;;;;5055646;28;20082;-78
2023/10/04 05:16:38;;;;;;;1.08;0.80;;;;;;;;;;5049196;28;20113;-78
2023/10/04 05:19:07;;;;;;;2.10;1.00;;;;;;;;;;5037891;28;20032;-78
2023/10/04 05:21:34;;;;;;;2.13;1.05;;;;;;;;;;5035408;28;20045;-78
2023/10/04 05:24:00;;;;;;;1.10;0.93;;;;;;;;;;5036360;28;20072;-78
2023/10/04 05:26:27;;;;;;;0.75;0.57;;;;;;;;;;5033904;28;20033;-76
2023/10/04 05:28:53;;;;;;;1.20;0.98;;;;;;;;;;5035990;28;20049;-78
2023/10/04 05:31:19;;;;;;;1.15;0.93;;;;;;;;;;5044312;28;20132;-78
2023/10/04 05:33:45;;;;;;;1.95;1.10;;;;;;;;;;5041527;28;20049;-78
2023/10/04 05:36:12;;;;;;;1.98;1.20;;;;;;;;;;5035996;28;20040;-78
2023/10/04 05:38:38;;;;;;;0.80;0.80;;;;;;;;;;5055357;28;20025;-79
2023/10/04 05:41:04;;;;;;;1.10;0.82;;;;;;;;;;5057350;28;20029;-79
2023/10/04 05:43:32;;;;;;;1.10;0.80;;;;;;;;;;5056619;28;20043;-78
2023/10/04 05:45:59;;;;;;;1.10;0.95;;;;;;;;;;5056963;28;20097;-78
2023/10/04 05:48:26;;;;;;;0.85;0.70;;;;;;;;;;5043324;28;20028;-77
2023/10/04 05:50:54;;;;;;;0.98;0.88;;;;;;;;;;5036599;28;20033;-78
2023/10/04 05:53:21;;;;;;;0.85;0.80;;;;;;;;;;5038786;28;20014;-78
2023/10/04 05:55:51;;;;;;;0.75;0.73;;;;;;;;;;5040315;28;20033;-78
2023/10/04 05:58:18;;;;;;;3.78;1.50;;;;;;;;;;5049229;28;20402;-79
2023/10/04 06:00:46;;;;;;;3.03;1.40;;;;;;;;;;5061496;28;20037;-79
2023/10/04 06:03:13;;;;;;;2.15;1.50;;;;;;;;;;5062069;28;20052;-80
2023/10/04 06:05:40;;;;;;;2.03;1.33;;;;;;;;;;5059351;28;20029;-78
2023/10/04 06:08:11;;;;;;;3.28;1.20;;;;;;;;;;5052136;28;20033;-77
2023/10/04 06:10:37;;;;;;;2.55;1.70;;;;;;;;;;5036514;28;20041;-77
2023/10/04 06:13:07;;;;;;;2.60;1.50;;;;;;;;;;5035321;28;20022;-80
2023/10/04 06:15:33;;;;;;;2.90;1.27;;;;;;;;;;5037916;28;20036;-79
2023/10/04 06:18:00;;;;;;;1.80;1.00;;;;;;;;;;5037735;28;20518;-79
2023/10/04 06:20:32;;;;;;;2.78;1.52;;;;;;;;;;5050566;28;20078;-78
2023/10/04 06:23:00;;;;;;;1.63;1.20;;;;;;;;;;5061635;28;20037;-78
2023/10/04 06:25:26;;;;;;;4.13;2.10;;;;;;;;;;5057548;28;20021;-79
2023/10/04 06:27:53;;;;;;;2.35;1.45;;;;;;;;;;5057439;28;20396;-77
2023/10/04 06:30:21;;;;;;;2.42;1.25;;;;;;;;;;5056134;28;20479;-77
2023/10/04 06:32:48;;;;;;;1.50;1.30;;;;;;;;;;5054675;28;20032;-77
2023/10/04 06:35:14;;;;;;;2.58;1.38;;;;;;;;;;5054487;28;20030;-79
2023/10/04 06:37:41;;;;;;;1.85;1.60;;;;;;;;;;5058060;28;20021;-79
2023/10/04 06:40:15;;;;;;;1.83;1.20;;;;;;;;;;5042571;28;20025;-79
2023/10/04 06:42:41;;;;;;;4.63;1.80;;;;;;;;;;5035840;28;20030;-78
2023/10/04 06:45:09;;;;;;;1.95;1.42;;;;;;;;;;5036999;28;20022;-79
2023/10/04 06:47:35;;;;;;;3.28;1.85;;;;;;;;;;5039110;28;20014;-79
2023/10/04 06:50:02;;;;;;;2.58;1.80;;;;;;;;;;5038840;28;20022;-77
2023/10/04 06:52:28;;;;;;;2.67;1.58;;;;;;;;;;5038627;28;20448;-78
2023/10/04 06:54:54;;;;;;;2.35;1.42;;;;;;;;;;5040110;28;20032;-78
2023/10/04 06:57:20;;;;;;;3.10;1.75;;;;;;;;;;5041353;28;20088;-78
2023/10/04 06:59:46;;;;;;;2.08;1.23;;;;;;;;;;5039649;28;20022;-77
2023/10/04 07:02:13;;;;;;;4.32;2.17;;;;;;;;;;5037007;28;20022;-79
2023/10/04 07:04:39;;;;;;;2.00;1.45;;;;;;;;;;5035905;28;20047;-78
2023/10/04 07:07:05;;;;;;;2.28;1.63;;;;;;;;;;5038085;28;20052;-79
2023/10/04 07:09:31;;;;;;;1.83;1.52;;;;;;;;;;5037722;28;20025;-79
2023/10/04 07:11:57;;;;;;;3.13;1.67;;;;;;;;;;5055556;28;20021;-79
2023/10/04 07:14:23;;;;;;;3.13;1.40;;;;;;;;;;5056316;28;20138;-79
2023/10/04 07:16:52;;;;;;;3.47;1.45;;;;;;;;;;5057360;28;20115;-79
2023/10/04 07:19:18;;;;;;;2.63;1.40;;;;;;;;;;5059188;28;20120;-79
2023/10/04 07:21:44;;;;;;;2.70;1.35;;;;;;;;;;5049458;28;20099;-79
2023/10/04 07:24:10;;;;;;;3.13;1.40;;;;;;;;;;5041083;28;20025;-78
2023/10/04 07:26:36;;;;;;;2.17;1.10;;;;;;;;;;5040997;28;20080;-79
2023/10/04 07:29:03;;;;;;;2.30;1.40;;;;;;;;;;5040807;28;20028;-78
2023/10/04 07:31:31;;;;;;;2.70;1.50;;;;;;;;;;5043601;28;20018;-79
2023/10/04 07:33:57;;;;;;;4.15;2.10;;;;;;;;;;5039377;28;20026;-79
2023/10/04 07:36:23;;;;;;;2.22;1.70;;;;;;;;;;5040506;28;20021;-79
2023/10/04 07:38:50;;;;;;;1.70;1.48;;;;;;;;;;5040064;28;20025;-79
2023/10/04 07:41:16;;;;;;;2.17;1.45;;;;;;;;;;5045115;28;20029;-78
2023/10/04 07:43:42;;;;;;;2.88;1.38;;;;;;;;;;5049500;28;20066;-79
2023/10/04 07:46:08;;;;;;;3.60;1.02;;;;;;;;;;5040278;28;20023;-78
2023/10/04 07:48:35;;;;;;;2.03;1.67;;;;;;;;;;5040420;28;20033;-77
2023/10/04 07:51:02;;;;;;;2.22;1.55;;;;;;;;;;5037001;28;20033;-77
2023/10/04 07:53:28;;;;;;;1.85;1.50;;;;;;;;;;5038596;28;20029;-78
2023/10/04 07:55:54;;;;;;;1.83;1.30;;;;;;;;;;5037743;28;20036;-77
2023/10/04 07:58:20;;;;;;;1.65;1.45;;;;;;;;;;5037159;28;20503;-78
2023/10/04 08:00:46;;;;;;;3.38;1.85;;;;;;;;;;5036947;28;20032;-77
2023/10/04 08:03:12;;;;;;;1.40;1.23;;;;;;;;;;5053694;28;20386;-77
2023/10/04 08:05:39;;;;;;;2.00;1.60;;;;;;;;;;5067182;28;20127;-78
2023/10/04 08:08:05;;;;;;;1.58;1.25;;;;;;;;;;5066498;28;20021;-78
2023/10/04 08:10:36;;;;;;;2.15;1.50;;;;;;;;;;5060842;28;20070;-78
2023/10/04 08:13:03;;;;;;;4.15;1.65;;;;;;;;;;5048430;28;20021;-77
2023/10/04 08:15:30;;;;;;;4.82;1.98;;;;;;;;;;5040363;28;20025;-78
2023/10/04 08:17:58;;;;;;;2.33;1.50;;;;;;;;;;5042449;28;20492;-77
2023/10/04 08:20:26;;;;;;;2.33;1.58;;;;;;;;;;5042126;28;20068;-78
2023/10/04 08:22:52;;;;;;;1.20;1.10;;;;;;;;;;5047426;28;20033;-78
2023/10/04 08:25:20;;;;;;;1.45;1.20;;;;;;;;;;5060409;28;20047;-78
2023/10/04 08:27:46;;;;;;;1.73;1.48;;;;;;;;;;5060668;28;20021;-79
2023/10/04 08:30:13;;;;;;;4.50;1.95;;;;;;;;;;5055529;28;20432;-77
2023/10/04 08:32:41;;;;;;;3.20;1.83;;;;;;;;;;5054986;28;20133;-77
2023/10/04 08:35:08;;;;;;;2.47;2.10;;;;;;;;;;5041105;28;20020;-78
2023/10/04 08:37:34;;;;;;;2.47;1.63;;;;;;;;;;5040633;28;20018;-78
2023/10/04 08:40:01;;;;;;;2.42;1.55;;;;;;;;;;5042549;28;20040;-77
2023/10/04 08:42:28;;;;;;;4.90;1.52;;;;;;;;;;5044927;28;20014;-78
2023/10/04 08:44:54;;;;;;;1.90;1.35;;;;;;;;;;5056170;28;20033;-77
2023/10/04 08:47:22;;;;;;;2.55;1.75;;;;;;;;;;5055922;28;20041;-78
2023/10/04 08:49:54;;;;;;;3.88;1.77;;;;;;;;;;5055694;28;20048;-78
2023/10/04 08:52:23;;;;;;;3.42;1.52;;;;;;;;;;5043684;28;20140;-78
2023/10/04 08:54:52;;;;;;;3.90;2.08;;;;;;;;;;5038833;28;20062;-78
2023/10/04 08:57:21;;;;;;;3.10;1.80;;;;;;;;;;5038130;28;20104;-77
2023/10/04 08:59:51;;;;;;;4.18;1.90;;;;;;;;;;5036371;28;20025;-77
2023/10/04 09:02:19;;;;;;;2.30;1.40;;;;;;;;;;5037867;28;20152;-77
2023/10/04 09:04:46;;;;;;;3.95;2.10;;;;;;;;;;5038806;28;20036;-77
2023/10/04 09:07:12;;;;;;;2.95;1.60;;;;;;;;;;5039929;28;20502;-79
2023/10/04 09:09:38;;;;;;;1.98;1.65;;;;;;;;;;5038447;28;20029;-78
2023/10/04 09:12:06;;;;;;;1.67;1.40;;;;;;;;;;5038950;28;20045;-78
2023/10/04 09:14:33;;;;;;;6.05;2.35;;;;;;;;;;5043924;28;20453;-78
2023/10/04 09:17:06;;;;;;;2.55;1.70;;;;;;;;;;5037756;28;20036;-78
2023/10/04 09:19:32;;;;;;;3.10;2.08;;;;;;;;;;5037783;28;20040;-77
2023/10/04 09:22:05;;;;;;;2.47;1.52;;;;;;;;;;5037882;28;20048;-79
2023/10/04 09:24:31;;;;;;;1.95;1.60;;;;;;;;;;5039304;28;20032;-78
2023/10/04 09:26:57;;;;;;;3.30;1.77;;;;;;;;;;5039582;28;20040;-78
2023/10/04 09:29:33;;;;;;;3.10;1.75;;;;;;;;;;5038437;28;20025;-78
2023/10/04 09:32:00;;;;;;;2.80;1.95;;;;;;;;;;5039782;28;20487;-78
2023/10/04 09:34:28;;;;;;;2.92;1.70;;;;;;;;;;5039834;28;20403;-77
2023/10/04 09:36:54;;;;;;;3.28;1.52;;;;;;;;;;5056870;28;20025;-77
2023/10/04 09:39:27;;;;;;;1.98;1.33;;;;;;;;;;5058764;28;20099;-77
2023/10/04 09:41:54;;;;;;;5.40;1.92;;;;;;;;;;5055189;28;20029;-77
2023/10/04 09:44:31;;;;;;;2.50;1.70;;;;;;;;;;5056403;28;20033;-78
2023/10/04 09:47:03;;;;;;;3.25;1.33;;;;;;;;;;5051530;28;20446;-77
2023/10/04 09:49:33;;;;;;;2.58;1.52;;;;;;;;;;5036507;28;20026;-78
2023/10/04 09:52:00;;;;;;;2.92;1.98;;;;;;;;;;5038091;28;20024;-79
2023/10/04 09:54:30;;;;;;;2.40;1.60;;;;;;;;;;5036918;28;20239;-78
2023/10/04 09:56:57;;;;;;;1.92;1.30;;;;;;;;;;5038026;28;20052;-78
2023/10/04 09:59:23;;;;;;;2.05;1.50;;;;;;;;;;5038890;28;20033;-78
2023/10/04 10:01:54;;;;;;;2.90;1.73;;;;;;;;;;5038360;28;20045;-77
2023/10/04 10:04:23;;;;;;;2.53;1.50;;;;;;;;;;5036151;28;20033;-78
2023/10/04 10:06:58;;;;;;;2.38;1.60;;;;;;;;;;5035176;28;20025;-78
2023/10/04 10:09:25;;;;;;;1.25;1.00;;;;;;;;;;5034867;28;20112;-77
2023/10/04 10:11:52;;;;;;;3.20;1.92;;;;;;;;;;5036703;28;20090;-78
2023/10/04 10:14:22;;;;;;;1.98;1.30;;;;;;;;;;5037382;28;20029;-78
2023/10/04 10:16:54;;;;;;;2.28;1.80;;;;;;;;;;5038538;28;20109;-79
2023/10/04 10:19:19;;;;;;;;;;;;;;;;;;5038912;28;20021;-78
2023/10/04 10:22:06;;;;;;;2.10;1.33;;;;;;;;;;5036760;28;20424;-78
2023/10/04 10:24:32;;;;;;;1.63;1.45;;;;;;;;;;5038193;28;20496;-78
2023/10/04 10:27:02;;;;;;;1.45;1.35;;;;;;;;;;5043898;28;20120;-79
2023/10/04 10:29:31;;;;;;;4.65;1.90;;;;;;;;;;5053843;28;20033;-77
2023/10/04 10:31:57;;;;;;;2.20;1.60;;;;;;;;;;5053228;28;20025;-77
2023/10/04 10:34:23;;;;;;;3.97;2.00;;;;;;;;;;5055742;28;20384;-78
2023/10/04 10:37:08;;;;;;;2.38;1.60;;;;;;;;;;5055158;28;20096;-77
2023/10/04 10:39:42;;;;;;;2.28;1.50;;;;;;;;;;5032675;28;20033;-77
2023/10/04 10:42:11;;;;;;;2.13;1.63;;;;;;;;;;5056787;28;20025;-78
2023/10/04 10:44:39;;;;;;;2.83;1.67;;;;;;;;;;5058549;28;20028;-78
2023/10/04 10:47:18;;;;;;;1.42;1.23;;;;;;;;;;5057762;28;20025;-78
2023/10/04 10:49:52;;;;;;;2.75;1.80;;;;;;;;;;5056689;28;20285;-78
2023/10/04 10:52:38;;;;;;;2.22;1.27;;;;;;;;;;5055540;28;20037;-77
2023/10/04 10:55:05;;;;;;;2.22;1.50;;;;;;;;;;5062599;28;20013;-79
2023/10/04 10:57:32;;;;;;;3.15;1.60;;;;;;;;;;5054635;28;20025;-77
2023/10/04 11:00:03;;;;;;;3.28;1.80;;;;;;;;;;5038678;28;20115;-79
2023/10/04 11:02:30;;;;;;;1.60;1.40;;;;;;;;;;5038344;28;20026;-77
2023/10/04 11:04:56;;;;;;;5.10;2.10;;;;;;;;;;5045584;28;20256;-77
2023/10/04 11:07:23;;;;;;;3.50;2.13;;;;;;;;;;5045724;28;20491;-77
2023/10/04 11:09:50;;;;;;;4.95;1.80;;;;;;;;;;5041963;28;20037;-77
2023/10/04 11:12:21;;;;;;;2.67;1.90;;;;;;;;;;5044156;28;20154;-77
2023/10/04 11:14:47;;;;;;;2.90;1.57;;;;;;;;;;5043373;28;20455;-77
2023/10/04 11:17:16;;;;;;;3.20;1.90;;;;;;;;;;5043169;28;20282;-77
2023/10/04 11:19:42;;;;;;;3.72;2.22;;;;;;;;;;5045076;28;20029;-78
2023/10/04 11:22:09;;;;;;;2.50;1.30;;;;;;;;;;5044243;28;20068;-77
2023/10/04 11:24:42;;;;;;;3.30;1.50;;;;;;;;;;5045845;28;20029;-78
2023/10/04 11:27:09;;;;;;;3.28;1.50;;;;;;;;;;5039222;28;20103;-77
2023/10/04 11:29:35;;;;;;;2.08;1.70;;;;;;;;;;5039809;28;20104;-77
2023/10/04 11:32:02;;;;;;;2.35;1.25;;;;;;;;;;5040005;28;20453;-77
2023/10/04 11:34:28;;;;;;;4.25;1.80;;;;;;;;;;5042791;28;20029;-78
2023/10/04 11:36:59;;;;;;;4.63;1.85;;;;;;;;;;5041952;28;20029;-78
2023/10/04 11:39:33;;;;;;;2.67;1.80;;;;;;;;;;5048188;28;20078;-77
2023/10/04 11:42:00;;;;;;;3.75;2.30;;;;;;;;;;5058837;28;20049;-77
2023/10/04 11:44:26;;;;;;;3.65;2.47;;;;;;;;;;5059673;28;20021;-78
2023/10/04 11:46:53;;;;;;;3.85;2.10;;;;;;;;;;5060223;28;20028;-78
2023/10/04 11:49:19;;;;;;;6.78;2.05;;;;;;;;;;5056848;28;20048;-78
2023/10/04 11:51:46;;;;;;;3.72;1.58;;;;;;;;;;5038547;28;20105;-78
2023/10/04 11:54:12;;;;;;;3.28;2.15;;;;;;;;;;5038316;28;20061;-77
2023/10/04 11:56:41;;;;;;;4.97;1.77;;;;;;;;;;5040342;28;20025;-78
2023/10/04 11:59:08;;;;;;;2.10;1.70;;;;;;;;;;5036929;28;20037;-78
2023/10/04 12:01:47;;;;;;;2.22;1.70;;;;;;;;;;5037763;28;20476;-76
2023/10/04 12:04:14;;;;;;;4.13;1.73;;;;;;;;;;5037440;28;20093;-77
2023/10/04 12:06:41;;;;;;;2.75;1.90;;;;;;;;;;5038092;28;20476;-77
2023/10/04 12:09:08;;;;;;;3.05;1.95;;;;;;;;;;5040233;28;20025;-78
2023/10/04 12:11:38;;;;;;;2.85;1.73;;;;;;;;;;5042748;28;20026;-78
2023/10/04 12:14:04;;;;;;;2.30;1.45;;;;;;;;;;5043096;28;20108;-78
2023/10/04 12:16:32;;;;;;;3.00;1.80;;;;;;;;;;5038733;28;20499;-78
2023/10/04 12:18:59;;;;;;;2.45;1.70;;;;;;;;;;5040283;28;20022;-78
2023/10/04 12:21:25;;;;;;;4.88;2.70;;;;;;;;;;5051092;28;20107;-79
2023/10/04 12:23:51;;;;;;;4.38;2.15;;;;;;;;;;5060269;28;20057;-79
2023/10/04 12:26:20;;;;;;;2.72;1.70;;;;;;;;;;5059826;28;20033;-78
2023/10/04 12:28:47;;;;;;;2.53;1.77;;;;;;;;;;5060144;28;20021;-78
2023/10/04 12:31:13;;;;;;;3.70;1.75;;;;;;;;;;5057581;28;20448;-78
2023/10/04 12:33:39;;;;;;;3.78;1.55;;;;;;;;;;5060381;28;20486;-78
2023/10/04 12:36:05;;;;;;;4.13;2.30;;;;;;;;;;5058870;28;20076;-77
2023/10/04 12:38:31;;;;;;;3.20;1.83;;;;;;;;;;5060143;28;20032;-78
2023/10/04 12:40:57;;;;;;;5.70;2.17;;;;;;;;;;5057884;28;20025;-78
2023/10/04 12:43:24;;;;;;;2.83;1.63;;;;;;;;;;5057819;28;20036;-78
2023/10/04 12:45:54;;;;;;;2.00;1.65;;;;;;;;;;5057605;28;20029;-78
2023/10/04 12:48:20;;;;;;;2.65;1.40;;;;;;;;;;5057202;28;20126;-78
2023/10/04 12:50:47;;;;;;;3.63;1.92;;;;;;;;;;5057598;28;20036;-77
2023/10/04 12:53:14;;;;;;;3.28;1.80;;;;;;;;;;5056633;28;20482;-77
2023/10/04 12:55:54;;;;;;;3.28;1.85;;;;;;;;;;5057559;28;20033;-77
2023/10/04 12:58:20;;;;;;;2.75;1.60;;;;;;;;;;5059087;28;20104;-78
2023/10/04 13:00:47;;;;;;;2.67;2.00;;;;;;;;;;5060168;28;20033;-78
2023/10/04 13:03:13;;;;;;;2.65;1.70;;;;;;;;;;5044669;28;20053;-80
2023/10/04 13:05:42;;;;;;;3.17;2.13;;;;;;;;;;5036862;28;20029;-77
2023/10/04 13:08:08;;;;;;;4.03;2.20;;;;;;;;;;5036617;28;20075;-79
2023/10/04 13:10:36;;;;;;;3.88;2.33;;;;;;;;;;5040130;28;20025;-78
2023/10/04 13:13:03;;;;;;;2.63;1.60;;;;;;;;;;5040704;28;20021;-78
2023/10/04 13:15:29;;;;;;;1.50;1.40;;;;;;;;;;5043040;28;20044;-78
2023/10/04 13:17:55;;;;;;;1.55;1.20;;;;;;;;;;5056491;28;20045;-79
2023/10/04 13:20:25;;;;;;;1.98;1.48;;;;;;;;;;5056231;28;20028;-77
2023/10/04 13:22:52;;;;;;;2.20;1.60;;;;;;;;;;5061574;28;20029;-78
2023/10/04 13:25:18;;;;;;;3.22;2.38;;;;;;;;;;5062677;28;20028;-78
2023/10/04 13:27:45;;;;;;;2.05;1.52;;;;;;;;;;5056861;28;20025;-78
2023/10/04 13:30:13;;;;;;;5.80;2.10;;;;;;;;;;5056593;28;20024;-78
2023/10/04 13:32:39;;;;;;;3.72;1.77;;;;;;;;;;5053595;28;20028;-78
2023/10/04 13:35:08;;;;;;;6.57;2.42;;;;;;;;;;5036128;28;20022;-78
2023/10/04 13:37:34;;;;;;;2.85;1.80;;;;;;;;;;5035029;28;20022;-77
2023/10/04 13:40:08;;;;;;;4.13;2.10;;;;;;;;;;5034362;28;20021;-78
2023/10/04 13:42:35;;;;;;;2.50;1.60;;;;;;;;;;5033782;28;20021;-77
2023/10/04 13:45:01;;;;;;;3.03;1.60;;;;;;;;;;5033083;28;20449;-79
2023/10/04 13:47:28;;;;;;;2.50;1.50;;;;;;;;;;5038301;28;20030;-76
2023/10/04 13:49:55;;;;;;;3.75;2.00;;;;;;;;;;5035250;28;20018;-77
2023/10/04 13:52:22;;;;;;;3.30;2.05;;;;;;;;;;5034508;28;20117;-77
2023/10/04 13:54:51;;;;;;;2.88;1.98;;;;;;;;;;5047707;28;20033;-78
2023/10/04 13:57:18;;;;;;;2.50;1.58;;;;;;;;;;5054243;28;20017;-77
2023/10/04 13:59:45;;;;;;;2.15;1.60;;;;;;;;;;5054852;28;20025;-77
2023/10/04 14:02:11;;;;;;;2.72;1.52;;;;;;;;;;5056325;28;20085;-78
2023/10/04 14:04:37;;;;;;;1.45;1.08;;;;;;;;;;5056915;28;20029;-78
2023/10/04 14:07:03;;;;;;;2.42;1.60;;;;;;;;;;5061000;28;20028;-77
2023/10/04 14:09:32;;;;;;;1.60;1.50;;;;;;;;;;5057043;28;20336;-79
2023/10/04 14:11:58;;;;;;;1.80;1.35;;;;;;;;;;5057285;28;20032;-78
2023/10/04 14:14:27;;;;;;;1.50;1.40;;;;;;;;;;5053105;28;20022;-78
2023/10/04 14:16:53;;;;;;;1.77;1.60;;;;;;;;;;5038000;28;20032;-77
2023/10/04 14:19:19;;;;;;;1.33;1.15;;;;;;;;;;5036591;28;20038;-78
2023/10/04 14:21:45;;;;;;;1.13;1.02;;;;;;;;;;5038025;28;20087;-78
2023/10/04 14:24:11;;;;;;;1.52;1.30;;;;;;;;;;5036681;28;20472;-77
2023/10/04 14:26:38;;;;;;;1.00;0.95;;;;;;;;;;5036113;28;20035;-78
2023/10/04 14:29:04;;;;;;;1.02;0.98;;;;;;;;;;5036728;28;20062;-77
2023/10/04 14:31:31;;;;;;;0.90;0.90;;;;;;;;;;5035912;28;20021;-77
2023/10/04 14:33:58;;;;;;;1.02;0.90;;;;;;;;;;5035896;28;20033;-79
2023/10/04 14:36:26;;;;;;;0.95;0.95;;;;;;;;;;5050548;28;20382;-77
2023/10/04 14:38:53;;;;;;;0.82;0.82;;;;;;;;;;5035740;28;20373;-77
2023/10/04 14:41:20;;;;;;;1.08;0.98;;;;;;;;;;5040536;28;20041;-78
2023/10/04 14:43:46;;;;;;;1.38;1.00;;;;;;;;;;5038568;28;20035;-79
2023/10/04 14:46:12;;;;;;;1.48;1.33;;;;;;;;;;5047568;28;20113;-78